sensor_id;sensor_type;location;lat;lon;timestamp;P1;durP1;ratioP1;P2;durP2;ratioP2
41661;SDS011;27351;45.992;12.666;2022-07-17T00:02:02;8.50;;;4.00;;
41661;SDS011;27351;45.992;12.666;2022-07-17T00:04:28;6.93;;;4.18;;
41661;SDS011;27351;45.992;12.666;2022-07-17T00:06:54;7.05;;;4.07;;
41661;SDS011;27351;45.992;12.666;2022-07-17T00:09:19;6.43;;;3.50;;
41661;SDS011;27351;45.992;12.666;2022-07-17T00:11:45;6.57;;;3.83;;
41661;SDS011;27351;45.992;12.666;2022-07-17T00:14:11;6.73;;;3.30;;
41661;SDS011;27351;45.992;12.666;2022-07-17T00:16:38;6.35;;;3.50;;
41661;SDS011;27351;45.992;12.666;2022-07-17T00:19:04;7.32;;;3.63;;
41661;SDS011;27351;45.992;12.666;2022-07-17T00:21:30;6.72;;;3.70;;
41661;SDS011;27351;45.992;12.666;2022-07-17T00:23:55;6.70;;;3.50;;
41661;SDS011;27351;45.992;12.666;2022-07-17T00:26:21;6.93;;;3.73;;
41661;SDS011;27351;45.992;12.666;2022-07-17T00:28:46;6.87;;;3.97;;
41661;SDS011;27351;45.992;12.666;2022-07-17T00:31:12;7.45;;;3.53;;
41661;SDS011;27351;45.992;12.666;2022-07-17T00:33:38;6.17;;;3.70;;
41661;SDS011;27351;45.992;12.666;2022-07-17T00:36:04;6.97;;;3.90;;
41661;SDS011;27351;45.992;12.666;2022-07-17T00:38:29;7.68;;;4.00;;
41661;SDS011;27351;45.992;12.666;2022-07-17T00:40:56;8.30;;;4.50;;
41661;SDS011;27351;45.992;12.666;2022-07-17T00:43:22;7.82;;;4.38;;
41661;SDS011;27351;45.992;12.666;2022-07-17T00:45:55;8.93;;;4.60;;
41661;SDS011;27351;45.992;12.666;2022-07-17T00:48:22;8.25;;;4.68;;
41661;SDS011;27351;45.992;12.666;2022-07-17T00:50:48;8.30;;;4.83;;
41661;SDS011;27351;45.992;12.666;2022-07-17T00:53:13;7.70;;;4.40;;
41661;SDS011;27351;45.992;12.666;2022-07-17T00:55:39;8.02;;;4.57;;
41661;SDS011;27351;45.992;12.666;2022-07-17T00:58:05;7.53;;;4.50;;
41661;SDS011;27351;45.992;12.666;2022-07-17T01:00:32;10.13;;;4.70;;
41661;SDS011;27351;45.992;12.666;2022-07-17T01:02:58;9.43;;;4.50;;
41661;SDS011;27351;45.992;12.666;2022-07-17T01:05:24;7.83;;;4.50;;
41661;SDS011;27351;45.992;12.666;2022-07-17T01:07:50;9.02;;;4.63;;
41661;SDS011;27351;45.992;12.666;2022-07-17T01:10:17;8.55;;;4.57;;
41661;SDS011;27351;45.992;12.666;2022-07-17T01:12:42;9.45;;;4.88;;
41661;SDS011;27351;45.992;12.666;2022-07-17T01:15:09;9.97;;;4.80;;
41661;SDS011;27351;45.992;12.666;2022-07-17T01:17:35;8.55;;;4.70;;
41661;SDS011;27351;45.992;12.666;2022-07-17T01:20:10;9.30;;;5.00;;
41661;SDS011;27351;45.992;12.666;2022-07-17T01:22:43;11.95;;;5.20;;
41661;SDS011;27351;45.992;12.666;2022-07-17T01:25:09;8.20;;;5.40;;
41661;SDS011;27351;45.992;12.666;2022-07-17T01:27:35;9.30;;;5.13;;
41661;SDS011;27351;45.992;12.666;2022-07-17T01:30:01;10.35;;;5.25;;
41661;SDS011;27351;45.992;12.666;2022-07-17T01:32:34;8.23;;;4.80;;
41661;SDS011;27351;45.992;12.666;2022-07-17T01:35:00;11.53;;;5.83;;
41661;SDS011;27351;45.992;12.666;2022-07-17T01:37:27;8.63;;;4.95;;
41661;SDS011;27351;45.992;12.666;2022-07-17T01:39:54;9.13;;;5.13;;
41661;SDS011;27351;45.992;12.666;2022-07-17T01:42:20;10.10;;;5.85;;
41661;SDS011;27351;45.992;12.666;2022-07-17T01:44:46;7.30;;;5.18;;
41661;SDS011;27351;45.992;12.666;2022-07-17T01:47:12;8.80;;;5.80;;
41661;SDS011;27351;45.992;12.666;2022-07-17T01:49:50;8.63;;;5.47;;
41661;SDS011;27351;45.992;12.666;2022-07-17T01:52:16;9.70;;;6.03;;
41661;SDS011;27351;45.992;12.666;2022-07-17T01:54:41;11.48;;;5.97;;
41661;SDS011;27351;45.992;12.666;2022-07-17T01:57:08;10.02;;;5.78;;
41661;SDS011;27351;45.992;12.666;2022-07-17T01:59:34;9.63;;;6.10;;
41661;SDS011;27351;45.992;12.666;2022-07-17T02:01:59;10.17;;;6.80;;
41661;SDS011;27351;45.992;12.666;2022-07-17T02:04:25;8.53;;;6.63;;
41661;SDS011;27351;45.992;12.666;2022-07-17T02:06:53;9.13;;;6.05;;
41661;SDS011;27351;45.992;12.666;2022-07-17T02:09:20;10.00;;;6.40;;
41661;SDS011;27351;45.992;12.666;2022-07-17T02:11:46;11.70;;;7.13;;
41661;SDS011;27351;45.992;12.666;2022-07-17T02:14:12;13.30;;;7.00;;
41661;SDS011;27351;45.992;12.666;2022-07-17T02:16:38;10.27;;;6.55;;
41661;SDS011;27351;45.992;12.666;2022-07-17T02:19:03;9.83;;;6.70;;
41661;SDS011;27351;45.992;12.666;2022-07-17T02:21:29;9.77;;;6.80;;
41661;SDS011;27351;45.992;12.666;2022-07-17T02:23:54;8.73;;;6.40;;
41661;SDS011;27351;45.992;12.666;2022-07-17T02:26:20;11.30;;;6.73;;
41661;SDS011;27351;45.992;12.666;2022-07-17T02:28:45;8.00;;;6.20;;
41661;SDS011;27351;45.992;12.666;2022-07-17T02:31:11;9.57;;;6.57;;
41661;SDS011;27351;45.992;12.666;2022-07-17T02:33:37;10.63;;;7.23;;
41661;SDS011;27351;45.992;12.666;2022-07-17T02:36:02;9.48;;;6.95;;
41661;SDS011;27351;45.992;12.666;2022-07-17T02:38:28;9.15;;;6.88;;
41661;SDS011;27351;45.992;12.666;2022-07-17T02:40:53;8.60;;;6.80;;
41661;SDS011;27351;45.992;12.666;2022-07-17T02:43:19;11.30;;;7.60;;
41661;SDS011;27351;45.992;12.666;2022-07-17T02:45:44;8.93;;;6.83;;
41661;SDS011;27351;45.992;12.666;2022-07-17T02:48:10;9.43;;;7.60;;
41661;SDS011;27351;45.992;12.666;2022-07-17T02:50:36;9.30;;;6.55;;
41661;SDS011;27351;45.992;12.666;2022-07-17T02:53:01;11.43;;;6.57;;
41661;SDS011;27351;45.992;12.666;2022-07-17T02:55:27;8.00;;;5.73;;
41661;SDS011;27351;45.992;12.666;2022-07-17T02:57:52;10.75;;;6.10;;
41661;SDS011;27351;45.992;12.666;2022-07-17T03:00:18;8.73;;;5.87;;
41661;SDS011;27351;45.992;12.666;2022-07-17T03:02:46;8.43;;;5.75;;
41661;SDS011;27351;45.992;12.666;2022-07-17T03:05:12;7.78;;;5.95;;
41661;SDS011;27351;45.992;12.666;2022-07-17T03:07:38;8.07;;;5.83;;
41661;SDS011;27351;45.992;12.666;2022-07-17T03:10:04;9.10;;;5.83;;
41661;SDS011;27351;45.992;12.666;2022-07-17T03:12:29;9.77;;;5.55;;
41661;SDS011;27351;45.992;12.666;2022-07-17T03:14:55;9.85;;;5.68;;
41661;SDS011;27351;45.992;12.666;2022-07-17T03:17:21;9.23;;;5.70;;
41661;SDS011;27351;45.992;12.666;2022-07-17T03:19:46;9.20;;;5.60;;
41661;SDS011;27351;45.992;12.666;2022-07-17T03:22:12;11.15;;;5.70;;
41661;SDS011;27351;45.992;12.666;2022-07-17T03:24:37;10.50;;;5.60;;
41661;SDS011;27351;45.992;12.666;2022-07-17T03:27:03;9.00;;;5.30;;
41661;SDS011;27351;45.992;12.666;2022-07-17T03:29:29;9.02;;;5.30;;
41661;SDS011;27351;45.992;12.666;2022-07-17T03:31:54;8.83;;;4.73;;
41661;SDS011;27351;45.992;12.666;2022-07-17T03:34:20;8.27;;;4.10;;
41661;SDS011;27351;45.992;12.666;2022-07-17T03:36:45;7.53;;;4.20;;
41661;SDS011;27351;45.992;12.666;2022-07-17T03:39:12;8.52;;;4.28;;
41661;SDS011;27351;45.992;12.666;2022-07-17T03:41:37;9.00;;;4.73;;
41661;SDS011;27351;45.992;12.666;2022-07-17T03:44:03;7.73;;;4.33;;
41661;SDS011;27351;45.992;12.666;2022-07-17T03:46:29;11.93;;;4.53;;
41661;SDS011;27351;45.992;12.666;2022-07-17T03:48:54;8.70;;;4.25;;
41661;SDS011;27351;45.992;12.666;2022-07-17T03:51:20;9.07;;;3.75;;
41661;SDS011;27351;45.992;12.666;2022-07-17T03:53:45;6.97;;;4.10;;
41661;SDS011;27351;45.992;12.666;2022-07-17T03:56:11;7.88;;;4.03;;
41661;SDS011;27351;45.992;12.666;2022-07-17T03:58:36;8.83;;;4.03;;
41661;SDS011;27351;45.992;12.666;2022-07-17T04:01:02;7.47;;;4.20;;
41661;SDS011;27351;45.992;12.666;2022-07-17T04:03:28;9.18;;;4.35;;
41661;SDS011;27351;45.992;12.666;2022-07-17T04:05:53;8.05;;;3.95;;
41661;SDS011;27351;45.992;12.666;2022-07-17T04:08:19;8.83;;;4.40;;
41661;SDS011;27351;45.992;12.666;2022-07-17T04:10:45;7.93;;;4.30;;
41661;SDS011;27351;45.992;12.666;2022-07-17T04:13:10;7.45;;;4.10;;
41661;SDS011;27351;45.992;12.666;2022-07-17T04:15:36;9.20;;;4.87;;
41661;SDS011;27351;45.992;12.666;2022-07-17T04:18:18;9.40;;;4.30;;
41661;SDS011;27351;45.992;12.666;2022-07-17T04:20:44;9.43;;;4.37;;
41661;SDS011;27351;45.992;12.666;2022-07-17T04:23:09;9.40;;;4.30;;
41661;SDS011;27351;45.992;12.666;2022-07-17T04:25:36;8.57;;;4.28;;
41661;SDS011;27351;45.992;12.666;2022-07-17T04:28:02;10.35;;;4.05;;
41661;SDS011;27351;45.992;12.666;2022-07-17T04:30:27;9.30;;;3.90;;
41661;SDS011;27351;45.992;12.666;2022-07-17T04:32:53;8.03;;;3.93;;
41661;SDS011;27351;45.992;12.666;2022-07-17T04:35:18;7.83;;;4.17;;
41661;SDS011;27351;45.992;12.666;2022-07-17T04:37:44;8.03;;;3.80;;
41661;SDS011;27351;45.992;12.666;2022-07-17T04:40:10;7.00;;;3.67;;
41661;SDS011;27351;45.992;12.666;2022-07-17T04:42:36;10.32;;;4.15;;
41661;SDS011;27351;45.992;12.666;2022-07-17T04:45:01;6.50;;;3.42;;
41661;SDS011;27351;45.992;12.666;2022-07-17T04:47:27;6.33;;;3.30;;
41661;SDS011;27351;45.992;12.666;2022-07-17T04:49:52;6.70;;;3.78;;
41661;SDS011;27351;45.992;12.666;2022-07-17T04:52:18;5.70;;;3.53;;
41661;SDS011;27351;45.992;12.666;2022-07-17T04:54:43;9.00;;;4.07;;
41661;SDS011;27351;45.992;12.666;2022-07-17T04:57:09;6.77;;;3.90;;
41661;SDS011;27351;45.992;12.666;2022-07-17T04:59:34;5.67;;;3.70;;
41661;SDS011;27351;45.992;12.666;2022-07-17T05:02:02;6.05;;;4.18;;
41661;SDS011;27351;45.992;12.666;2022-07-17T05:04:28;8.32;;;4.10;;
41661;SDS011;27351;45.992;12.666;2022-07-17T05:06:54;7.82;;;4.60;;
41661;SDS011;27351;45.992;12.666;2022-07-17T05:09:19;7.23;;;4.60;;
41661;SDS011;27351;45.992;12.666;2022-07-17T05:11:45;7.70;;;3.85;;
41661;SDS011;27351;45.992;12.666;2022-07-17T05:14:10;6.47;;;4.00;;
41661;SDS011;27351;45.992;12.666;2022-07-17T05:16:36;7.65;;;4.38;;
41661;SDS011;27351;45.992;12.666;2022-07-17T05:19:01;7.43;;;4.50;;
41661;SDS011;27351;45.992;12.666;2022-07-17T05:21:27;8.50;;;4.57;;
41661;SDS011;27351;45.992;12.666;2022-07-17T05:23:53;7.90;;;3.90;;
41661;SDS011;27351;45.992;12.666;2022-07-17T05:26:18;8.02;;;4.20;;
41661;SDS011;27351;45.992;12.666;2022-07-17T05:28:44;7.97;;;4.27;;
41661;SDS011;27351;45.992;12.666;2022-07-17T05:31:09;6.95;;;3.80;;
41661;SDS011;27351;45.992;12.666;2022-07-17T05:33:35;6.47;;;3.90;;
41661;SDS011;27351;45.992;12.666;2022-07-17T05:36:00;6.53;;;3.73;;
41661;SDS011;27351;45.992;12.666;2022-07-17T05:38:26;7.75;;;4.05;;
41661;SDS011;27351;45.992;12.666;2022-07-17T05:40:52;7.20;;;4.20;;
41661;SDS011;27351;45.992;12.666;2022-07-17T05:43:17;6.30;;;3.78;;
41661;SDS011;27351;45.992;12.666;2022-07-17T05:45:43;7.20;;;4.17;;
41661;SDS011;27351;45.992;12.666;2022-07-17T05:48:08;7.43;;;3.80;;
41661;SDS011;27351;45.992;12.666;2022-07-17T05:50:34;7.00;;;3.80;;
41661;SDS011;27351;45.992;12.666;2022-07-17T05:53:00;7.33;;;4.00;;
41661;SDS011;27351;45.992;12.666;2022-07-17T05:55:25;7.40;;;4.17;;
41661;SDS011;27351;45.992;12.666;2022-07-17T05:57:51;13.55;;;4.20;;
41661;SDS011;27351;45.992;12.666;2022-07-17T06:00:16;11.63;;;3.97;;
41661;SDS011;27351;45.992;12.666;2022-07-17T06:02:43;7.40;;;3.90;;
41661;SDS011;27351;45.992;12.666;2022-07-17T06:05:09;7.55;;;3.95;;
41661;SDS011;27351;45.992;12.666;2022-07-17T06:07:35;6.97;;;3.58;;
41661;SDS011;27351;45.992;12.666;2022-07-17T06:10:01;6.63;;;4.00;;
41661;SDS011;27351;45.992;12.666;2022-07-17T06:12:27;7.43;;;4.07;;
41661;SDS011;27351;45.992;12.666;2022-07-17T06:14:52;6.53;;;3.70;;
41661;SDS011;27351;45.992;12.666;2022-07-17T06:17:18;5.88;;;3.70;;
41661;SDS011;27351;45.992;12.666;2022-07-17T06:19:44;6.72;;;4.20;;
41661;SDS011;27351;45.992;12.666;2022-07-17T06:22:10;6.40;;;3.90;;
41661;SDS011;27351;45.992;12.666;2022-07-17T06:24:35;8.88;;;4.13;;
41661;SDS011;27351;45.992;12.666;2022-07-17T06:27:01;37.20;;;7.37;;
41661;SDS011;27351;45.992;12.666;2022-07-17T06:29:26;7.15;;;4.00;;
41661;SDS011;27351;45.992;12.666;2022-07-17T06:31:52;13.77;;;4.23;;
41661;SDS011;27351;45.992;12.666;2022-07-17T06:34:18;6.47;;;3.80;;
41661;SDS011;27351;45.992;12.666;2022-07-17T06:36:43;13.53;;;4.10;;
41661;SDS011;27351;45.992;12.666;2022-07-17T06:39:09;9.23;;;3.67;;
41661;SDS011;27351;45.992;12.666;2022-07-17T06:41:34;130.63;;;9.63;;
41661;SDS011;27351;45.992;12.666;2022-07-17T06:44:00;54.63;;;6.53;;
41661;SDS011;27351;45.992;12.666;2022-07-17T06:46:25;30.20;;;5.40;;
41661;SDS011;27351;45.992;12.666;2022-07-17T06:48:51;12.27;;;3.87;;
41661;SDS011;27351;45.992;12.666;2022-07-17T06:51:17;9.35;;;3.60;;
41661;SDS011;27351;45.992;12.666;2022-07-17T06:53:43;8.30;;;3.70;;
41661;SDS011;27351;45.992;12.666;2022-07-17T06:56:09;5.70;;;3.30;;
41661;SDS011;27351;45.992;12.666;2022-07-17T06:58:34;8.70;;;3.28;;
41661;SDS011;27351;45.992;12.666;2022-07-17T07:01:00;12.02;;;3.58;;
41661;SDS011;27351;45.992;12.666;2022-07-17T07:03:26;10.03;;;2.90;;
41661;SDS011;27351;45.992;12.666;2022-07-17T07:05:51;4.75;;;2.30;;
41661;SDS011;27351;45.992;12.666;2022-07-17T07:08:17;13.20;;;2.50;;
41661;SDS011;27351;45.992;12.666;2022-07-17T07:10:43;6.40;;;2.23;;
41661;SDS011;27351;45.992;12.666;2022-07-17T07:13:09;7.18;;;2.35;;
41661;SDS011;27351;45.992;12.666;2022-07-17T07:15:35;15.93;;;3.17;;
41661;SDS011;27351;45.992;12.666;2022-07-17T07:18:00;4.65;;;2.08;;
41661;SDS011;27351;45.992;12.666;2022-07-17T07:20:26;9.30;;;2.20;;
41661;SDS011;27351;45.992;12.666;2022-07-17T07:22:51;12.13;;;2.70;;
41661;SDS011;27351;45.992;12.666;2022-07-17T07:25:17;5.38;;;2.15;;
41661;SDS011;27351;45.992;12.666;2022-07-17T07:27:43;4.50;;;2.20;;
41661;SDS011;27351;45.992;12.666;2022-07-17T07:30:09;3.97;;;2.00;;
41661;SDS011;27351;45.992;12.666;2022-07-17T07:32:36;5.87;;;2.00;;
41661;SDS011;27351;45.992;12.666;2022-07-17T07:35:02;8.75;;;2.50;;
41661;SDS011;27351;45.992;12.666;2022-07-17T07:37:28;16.20;;;2.10;;
41661;SDS011;27351;45.992;12.666;2022-07-17T07:39:54;3.80;;;2.03;;
41661;SDS011;27351;45.992;12.666;2022-07-17T07:42:19;4.10;;;1.95;;
41661;SDS011;27351;45.992;12.666;2022-07-17T07:44:45;5.17;;;2.10;;
41661;SDS011;27351;45.992;12.666;2022-07-17T07:47:10;7.22;;;2.38;;
41661;SDS011;27351;45.992;12.666;2022-07-17T07:49:36;3.57;;;1.60;;
41661;SDS011;27351;45.992;12.666;2022-07-17T07:52:02;3.87;;;2.00;;
41661;SDS011;27351;45.992;12.666;2022-07-17T07:54:27;5.15;;;1.95;;
41661;SDS011;27351;45.992;12.666;2022-07-17T07:56:53;3.90;;;1.97;;
41661;SDS011;27351;45.992;12.666;2022-07-17T07:59:20;5.45;;;2.05;;
41661;SDS011;27351;45.992;12.666;2022-07-17T08:01:46;5.50;;;1.90;;
41661;SDS011;27351;45.992;12.666;2022-07-17T08:04:11;4.97;;;1.83;;
41661;SDS011;27351;45.992;12.666;2022-07-17T08:06:37;7.03;;;2.00;;
41661;SDS011;27351;45.992;12.666;2022-07-17T08:09:04;6.20;;;1.90;;
41661;SDS011;27351;45.992;12.666;2022-07-17T08:11:29;4.53;;;1.73;;
41661;SDS011;27351;45.992;12.666;2022-07-17T08:13:55;3.63;;;1.70;;
41661;SDS011;27351;45.992;12.666;2022-07-17T08:16:20;3.95;;;1.65;;
41661;SDS011;27351;45.992;12.666;2022-07-17T08:18:46;5.85;;;1.90;;
41661;SDS011;27351;45.992;12.666;2022-07-17T08:21:12;4.80;;;2.13;;
41661;SDS011;27351;45.992;12.666;2022-07-17T08:23:37;5.50;;;1.77;;
41661;SDS011;27351;45.992;12.666;2022-07-17T08:26:03;5.23;;;1.80;;
41661;SDS011;27351;45.992;12.666;2022-07-17T08:28:29;5.25;;;1.75;;
41661;SDS011;27351;45.992;12.666;2022-07-17T08:30:54;4.22;;;1.85;;
41661;SDS011;27351;45.992;12.666;2022-07-17T08:33:20;5.33;;;1.70;;
41661;SDS011;27351;45.992;12.666;2022-07-17T08:35:45;3.35;;;1.88;;
41661;SDS011;27351;45.992;12.666;2022-07-17T08:38:11;4.43;;;1.60;;
41661;SDS011;27351;45.992;12.666;2022-07-17T08:40:37;5.97;;;1.90;;
41661;SDS011;27351;45.992;12.666;2022-07-17T08:43:04;6.10;;;1.95;;
41661;SDS011;27351;45.992;12.666;2022-07-17T08:45:31;4.93;;;1.90;;
41661;SDS011;27351;45.992;12.666;2022-07-17T08:47:56;4.25;;;1.88;;
41661;SDS011;27351;45.992;12.666;2022-07-17T08:50:30;4.30;;;1.60;;
41661;SDS011;27351;45.992;12.666;2022-07-17T08:52:57;6.65;;;1.90;;
41661;SDS011;27351;45.992;12.666;2022-07-17T08:55:22;4.45;;;2.00;;
41661;SDS011;27351;45.992;12.666;2022-07-17T08:57:48;4.70;;;1.75;;
41661;SDS011;27351;45.992;12.666;2022-07-17T09:00:14;3.73;;;1.80;;
41661;SDS011;27351;45.992;12.666;2022-07-17T09:02:52;4.13;;;1.75;;
41661;SDS011;27351;45.992;12.666;2022-07-17T09:05:20;6.22;;;2.00;;
41661;SDS011;27351;45.992;12.666;2022-07-17T09:07:46;4.00;;;1.65;;
41661;SDS011;27351;45.992;12.666;2022-07-17T09:10:12;5.60;;;1.80;;
41661;SDS011;27351;45.992;12.666;2022-07-17T09:12:38;3.45;;;1.85;;
41661;SDS011;27351;45.992;12.666;2022-07-17T09:15:13;3.97;;;1.80;;
41661;SDS011;27351;45.992;12.666;2022-07-17T09:17:47;4.00;;;2.00;;
41661;SDS011;27351;45.992;12.666;2022-07-17T09:20:13;2.90;;;1.77;;
41661;SDS011;27351;45.992;12.666;2022-07-17T09:22:39;5.38;;;1.90;;
41661;SDS011;27351;45.992;12.666;2022-07-17T09:25:05;3.83;;;1.70;;
41661;SDS011;27351;45.992;12.666;2022-07-17T09:27:31;7.10;;;1.90;;
41661;SDS011;27351;45.992;12.666;2022-07-17T09:29:58;3.80;;;1.70;;
41661;SDS011;27351;45.992;12.666;2022-07-17T09:32:26;4.90;;;1.90;;
41661;SDS011;27351;45.992;12.666;2022-07-17T09:34:52;4.05;;;1.63;;
41661;SDS011;27351;45.992;12.666;2022-07-17T09:37:18;3.05;;;1.50;;
41661;SDS011;27351;45.992;12.666;2022-07-17T09:39:44;5.75;;;2.20;;
41661;SDS011;27351;45.992;12.666;2022-07-17T09:42:11;4.13;;;1.80;;
41661;SDS011;27351;45.992;12.666;2022-07-17T09:44:56;6.05;;;1.98;;
41661;SDS011;27351;45.992;12.666;2022-07-17T09:47:25;6.00;;;1.80;;
41661;SDS011;27351;45.992;12.666;2022-07-17T09:49:54;8.18;;;2.22;;
41661;SDS011;27351;45.992;12.666;2022-07-17T09:52:25;14.95;;;2.25;;
41661;SDS011;27351;45.992;12.666;2022-07-17T09:54:54;5.97;;;2.22;;
41661;SDS011;27351;45.992;12.666;2022-07-17T09:57:20;9.65;;;3.10;;
41661;SDS011;27351;45.992;12.666;2022-07-17T09:59:50;6.13;;;1.77;;
41661;SDS011;27351;45.992;12.666;2022-07-17T10:02:17;9.10;;;2.08;;
41661;SDS011;27351;45.992;12.666;2022-07-17T10:04:45;6.38;;;2.03;;
41661;SDS011;27351;45.992;12.666;2022-07-17T10:07:11;4.53;;;1.90;;
41661;SDS011;27351;45.992;12.666;2022-07-17T10:09:37;8.98;;;2.40;;
41661;SDS011;27351;45.992;12.666;2022-07-17T10:12:03;3.08;;;1.73;;
41661;SDS011;27351;45.992;12.666;2022-07-17T10:14:30;5.70;;;2.03;;
41661;SDS011;27351;45.992;12.666;2022-07-17T10:17:05;7.85;;;2.50;;
41661;SDS011;27351;45.992;12.666;2022-07-17T10:19:31;13.00;;;2.53;;
41661;SDS011;27351;45.992;12.666;2022-07-17T10:21:58;5.70;;;2.30;;
41661;SDS011;27351;45.992;12.666;2022-07-17T10:24:25;6.38;;;2.20;;
41661;SDS011;27351;45.992;12.666;2022-07-17T10:26:51;6.20;;;2.53;;
41661;SDS011;27351;45.992;12.666;2022-07-17T10:29:33;4.93;;;2.00;;
41661;SDS011;27351;45.992;12.666;2022-07-17T10:32:01;5.43;;;1.90;;
41661;SDS011;27351;45.992;12.666;2022-07-17T10:37:15;5.20;;;2.10;;
41661;SDS011;27351;45.992;12.666;2022-07-17T10:39:51;4.97;;;2.20;;
41661;SDS011;27351;45.992;12.666;2022-07-17T10:42:17;5.65;;;2.20;;
41661;SDS011;27351;45.992;12.666;2022-07-17T10:50:40;5.38;;;2.10;;
41661;SDS011;27351;45.992;12.666;2022-07-17T10:53:10;5.07;;;2.40;;
41661;SDS011;27351;45.992;12.666;2022-07-17T10:55:37;4.47;;;2.40;;
41661;SDS011;27351;45.992;12.666;2022-07-17T10:58:03;4.60;;;2.10;;
41661;SDS011;27351;45.992;12.666;2022-07-17T11:00:29;7.30;;;2.30;;
41661;SDS011;27351;45.992;12.666;2022-07-17T11:02:55;4.30;;;2.40;;
41661;SDS011;27351;45.992;12.666;2022-07-17T11:05:21;4.20;;;2.30;;
41661;SDS011;27351;45.992;12.666;2022-07-17T11:10:18;3.33;;;2.27;;
41661;SDS011;27351;45.992;12.666;2022-07-17T11:12:44;4.67;;;2.30;;
41661;SDS011;27351;45.992;12.666;2022-07-17T11:15:10;5.45;;;2.58;;
41661;SDS011;27351;45.992;12.666;2022-07-17T11:17:36;5.18;;;2.05;;
41661;SDS011;27351;45.992;12.666;2022-07-17T11:20:02;5.07;;;2.03;;
41661;SDS011;27351;45.992;12.666;2022-07-17T11:22:28;5.25;;;2.13;;
41661;SDS011;27351;45.992;12.666;2022-07-17T11:24:53;5.87;;;2.20;;
41661;SDS011;27351;45.992;12.666;2022-07-17T11:27:24;4.95;;;2.30;;
41661;SDS011;27351;45.992;12.666;2022-07-17T11:29:50;4.63;;;2.33;;
41661;SDS011;27351;45.992;12.666;2022-07-17T11:32:16;4.45;;;2.38;;
41661;SDS011;27351;45.992;12.666;2022-07-17T11:34:42;3.57;;;2.30;;
41661;SDS011;27351;45.992;12.666;2022-07-17T11:37:08;4.57;;;2.30;;
41661;SDS011;27351;45.992;12.666;2022-07-17T11:42:04;3.78;;;2.20;;
41661;SDS011;27351;45.992;12.666;2022-07-17T11:44:32;5.30;;;2.20;;
41661;SDS011;27351;45.992;12.666;2022-07-17T11:46:57;7.83;;;2.60;;
41661;SDS011;27351;45.992;12.666;2022-07-17T11:49:24;6.60;;;2.42;;
41661;SDS011;27351;45.992;12.666;2022-07-17T11:51:50;4.18;;;2.20;;
41661;SDS011;27351;45.992;12.666;2022-07-17T11:54:16;3.73;;;2.40;;
41661;SDS011;27351;45.992;12.666;2022-07-17T11:56:51;4.20;;;2.13;;
41661;SDS011;27351;45.992;12.666;2022-07-17T11:59:23;5.07;;;2.03;;
41661;SDS011;27351;45.992;12.666;2022-07-17T12:01:49;4.80;;;2.25;;
41661;SDS011;27351;45.992;12.666;2022-07-17T12:04:15;4.53;;;2.30;;
41661;SDS011;27351;45.992;12.666;2022-07-17T12:06:40;4.27;;;2.07;;
41661;SDS011;27351;45.992;12.666;2022-07-17T12:09:06;5.43;;;2.10;;
41661;SDS011;27351;45.992;12.666;2022-07-17T12:11:32;6.17;;;2.60;;
41661;SDS011;27351;45.992;12.666;2022-07-17T12:14:05;4.70;;;2.43;;
41661;SDS011;27351;45.992;12.666;2022-07-17T12:16:35;5.57;;;2.40;;
41661;SDS011;27351;45.992;12.666;2022-07-17T12:19:12;5.25;;;2.35;;
41661;SDS011;27351;45.992;12.666;2022-07-17T12:21:47;4.95;;;2.65;;
41661;SDS011;27351;45.992;12.666;2022-07-17T12:24:21;4.15;;;2.20;;
41661;SDS011;27351;45.992;12.666;2022-07-17T12:26:48;7.82;;;2.55;;
41661;SDS011;27351;45.992;12.666;2022-07-17T12:29:14;5.35;;;2.15;;
41661;SDS011;27351;45.992;12.666;2022-07-17T12:31:40;6.23;;;2.43;;
41661;SDS011;27351;45.992;12.666;2022-07-17T12:34:06;3.93;;;2.30;;
41661;SDS011;27351;45.992;12.666;2022-07-17T12:36:32;4.35;;;2.33;;
41661;SDS011;27351;45.992;12.666;2022-07-17T12:38:58;4.60;;;2.25;;
41661;SDS011;27351;45.992;12.666;2022-07-17T12:41:23;5.33;;;2.30;;
41661;SDS011;27351;45.992;12.666;2022-07-17T12:43:49;3.63;;;2.10;;
41661;SDS011;27351;45.992;12.666;2022-07-17T12:46:15;4.10;;;2.10;;
41661;SDS011;27351;45.992;12.666;2022-07-17T12:48:42;5.05;;;2.35;;
41661;SDS011;27351;45.992;12.666;2022-07-17T12:51:09;4.32;;;2.20;;
41661;SDS011;27351;45.992;12.666;2022-07-17T12:53:35;5.53;;;2.10;;
41661;SDS011;27351;45.992;12.666;2022-07-17T12:56:02;4.97;;;2.10;;
41661;SDS011;27351;45.992;12.666;2022-07-17T12:58:28;4.63;;;2.35;;
41661;SDS011;27351;45.992;12.666;2022-07-17T13:00:54;4.70;;;2.10;;
41661;SDS011;27351;45.992;12.666;2022-07-17T13:03:20;3.63;;;2.10;;
41661;SDS011;27351;45.992;12.666;2022-07-17T13:05:45;3.67;;;2.08;;
41661;SDS011;27351;45.992;12.666;2022-07-17T13:08:11;4.00;;;2.10;;
41661;SDS011;27351;45.992;12.666;2022-07-17T13:10:37;4.70;;;2.20;;
41661;SDS011;27351;45.992;12.666;2022-07-17T13:13:02;3.95;;;2.25;;
41661;SDS011;27351;45.992;12.666;2022-07-17T13:15:29;5.43;;;2.50;;
41661;SDS011;27351;45.992;12.666;2022-07-17T13:17:55;3.78;;;2.20;;
41661;SDS011;27351;45.992;12.666;2022-07-17T13:20:21;3.58;;;2.15;;
41661;SDS011;27351;45.992;12.666;2022-07-17T13:22:47;4.30;;;2.37;;
41661;SDS011;27351;45.992;12.666;2022-07-17T13:25:13;4.43;;;2.30;;
41661;SDS011;27351;45.992;12.666;2022-07-17T13:27:38;5.82;;;2.60;;
41661;SDS011;27351;45.992;12.666;2022-07-17T13:30:04;5.67;;;2.27;;
41661;SDS011;27351;45.992;12.666;2022-07-17T13:32:30;4.60;;;2.30;;
41661;SDS011;27351;45.992;12.666;2022-07-17T13:34:55;4.67;;;2.13;;
41661;SDS011;27351;45.992;12.666;2022-07-17T13:37:21;5.30;;;2.17;;
41661;SDS011;27351;45.992;12.666;2022-07-17T13:39:46;5.10;;;2.17;;
41661;SDS011;27351;45.992;12.666;2022-07-17T13:42:12;2.72;;;2.00;;
41661;SDS011;27351;45.992;12.666;2022-07-17T13:44:38;4.60;;;2.40;;
41661;SDS011;27351;45.992;12.666;2022-07-17T13:47:03;4.70;;;2.40;;
41661;SDS011;27351;45.992;12.666;2022-07-17T13:49:29;7.93;;;2.50;;
41661;SDS011;27351;45.992;12.666;2022-07-17T13:51:55;5.13;;;2.30;;
41661;SDS011;27351;45.992;12.666;2022-07-17T13:54:20;3.37;;;2.23;;
41661;SDS011;27351;45.992;12.666;2022-07-17T13:56:46;6.80;;;2.15;;
41661;SDS011;27351;45.992;12.666;2022-07-17T13:59:12;5.03;;;2.20;;
41661;SDS011;27351;45.992;12.666;2022-07-17T14:01:37;3.28;;;2.10;;
41661;SDS011;27351;45.992;12.666;2022-07-17T14:04:03;4.37;;;2.20;;
41661;SDS011;27351;45.992;12.666;2022-07-17T14:06:29;5.45;;;2.30;;
41661;SDS011;27351;45.992;12.666;2022-07-17T14:08:54;4.57;;;2.13;;
41661;SDS011;27351;45.992;12.666;2022-07-17T14:11:20;4.13;;;2.17;;
41661;SDS011;27351;45.992;12.666;2022-07-17T14:13:46;4.70;;;2.53;;
41661;SDS011;27351;45.992;12.666;2022-07-17T14:16:11;5.57;;;2.15;;
41661;SDS011;27351;45.992;12.666;2022-07-17T14:18:37;5.57;;;2.40;;
41661;SDS011;27351;45.992;12.666;2022-07-17T14:21:22;4.85;;;2.40;;
41661;SDS011;27351;45.992;12.666;2022-07-17T14:23:48;5.10;;;2.47;;
41661;SDS011;27351;45.992;12.666;2022-07-17T14:26:14;5.03;;;2.47;;
41661;SDS011;27351;45.992;12.666;2022-07-17T14:28:39;4.60;;;2.50;;
41661;SDS011;27351;45.992;12.666;2022-07-17T14:31:05;6.20;;;2.80;;
41661;SDS011;27351;45.992;12.666;2022-07-17T14:33:30;4.53;;;2.30;;
41661;SDS011;27351;45.992;12.666;2022-07-17T14:35:56;5.23;;;2.40;;
41661;SDS011;27351;45.992;12.666;2022-07-17T14:38:21;5.47;;;2.40;;
41661;SDS011;27351;45.992;12.666;2022-07-17T14:40:47;4.83;;;2.33;;
41661;SDS011;27351;45.992;12.666;2022-07-17T14:43:12;4.53;;;2.20;;